sensor_id;sensor_type;location;lat;lon;timestamp;temperature;humidity
43884;DHT22;29544;52.018;5.810;2023-04-06T00:01:12;18.60;41.90
43884;DHT22;29544;52.018;5.810;2023-04-06T00:03:38;18.60;41.90
43884;DHT22;29544;52.018;5.810;2023-04-06T00:06:03;18.60;41.90
43884;DHT22;29544;52.018;5.810;2023-04-06T00:08:29;18.50;41.90
43884;DHT22;29544;52.018;5.810;2023-04-06T00:10:55;18.50;41.90
43884;DHT22;29544;52.018;5.810;2023-04-06T00:13:21;18.50;42.00
43884;DHT22;29544;52.018;5.810;2023-04-06T00:15:46;18.40;41.90
43884;DHT22;29544;52.018;5.810;2023-04-06T00:18:12;18.40;42.00
43884;DHT22;29544;52.018;5.810;2023-04-06T00:20:37;18.40;42.00
43884;DHT22;29544;52.018;5.810;2023-04-06T00:23:03;18.40;42.00
43884;DHT22;29544;52.018;5.810;2023-04-06T00:25:29;18.30;42.00
43884;DHT22;29544;52.018;5.810;2023-04-06T00:27:54;18.30;42.00
43884;DHT22;29544;52.018;5.810;2023-04-06T00:30:20;18.30;42.10
43884;DHT22;29544;52.018;5.810;2023-04-06T00:32:45;18.20;42.00
43884;DHT22;29544;52.018;5.810;2023-04-06T00:35:11;18.20;42.00
43884;DHT22;29544;52.018;5.810;2023-04-06T00:37:37;18.20;42.10
43884;DHT22;29544;52.018;5.810;2023-04-06T00:40:02;18.10;42.00
43884;DHT22;29544;52.018;5.810;2023-04-06T00:42:28;18.10;42.10
43884;DHT22;29544;52.018;5.810;2023-04-06T00:44:58;18.10;42.10
43884;DHT22;29544;52.018;5.810;2023-04-06T00:47:25;18.10;42.10
43884;DHT22;29544;52.018;5.810;2023-04-06T00:49:52;18.00;42.00
43884;DHT22;29544;52.018;5.810;2023-04-06T00:52:18;18.00;42.10
43884;DHT22;29544;52.018;5.810;2023-04-06T00:54:44;18.00;42.10
43884;DHT22;29544;52.018;5.810;2023-04-06T00:57:13;18.00;42.10
43884;DHT22;29544;52.018;5.810;2023-04-06T00:59:39;17.90;42.10
43884;DHT22;29544;52.018;5.810;2023-04-06T01:02:05;17.90;42.10
43884;DHT22;29544;52.018;5.810;2023-04-06T01:04:31;17.90;42.10
43884;DHT22;29544;52.018;5.810;2023-04-06T01:06:56;17.90;42.20
43884;DHT22;29544;52.018;5.810;2023-04-06T01:09:22;17.90;42.20
43884;DHT22;29544;52.018;5.810;2023-04-06T01:11:47;17.80;42.20
43884;DHT22;29544;52.018;5.810;2023-04-06T01:14:13;17.80;42.20
43884;DHT22;29544;52.018;5.810;2023-04-06T01:16:39;17.70;42.10
43884;DHT22;29544;52.018;5.810;2023-04-06T01:19:09;17.70;42.20
43884;DHT22;29544;52.018;5.810;2023-04-06T01:21:36;17.70;42.10
43884;DHT22;29544;52.018;5.810;2023-04-06T01:24:01;17.70;42.20
43884;DHT22;29544;52.018;5.810;2023-04-06T01:26:27;17.60;42.20
43884;DHT22;29544;52.018;5.810;2023-04-06T01:28:54;17.60;42.20
43884;DHT22;29544;52.018;5.810;2023-04-06T01:31:20;17.60;42.20
43884;DHT22;29544;52.018;5.810;2023-04-06T01:33:46;17.60;42.20
43884;DHT22;29544;52.018;5.810;2023-04-06T01:36:12;17.50;42.20
43884;DHT22;29544;52.018;5.810;2023-04-06T01:38:37;17.50;42.20
43884;DHT22;29544;52.018;5.810;2023-04-06T01:41:03;17.50;42.10
43884;DHT22;29544;52.018;5.810;2023-04-06T01:43:28;17.50;42.20
43884;DHT22;29544;52.018;5.810;2023-04-06T01:45:54;17.50;42.20
43884;DHT22;29544;52.018;5.810;2023-04-06T01:48:20;17.40;42.20
43884;DHT22;29544;52.018;5.810;2023-04-06T01:50:46;17.40;42.10
43884;DHT22;29544;52.018;5.810;2023-04-06T01:53:11;17.40;42.20
43884;DHT22;29544;52.018;5.810;2023-04-06T01:55:37;17.40;42.20
43884;DHT22;29544;52.018;5.810;2023-04-06T01:58:03;17.30;42.20
43884;DHT22;29544;52.018;5.810;2023-04-06T02:00:28;17.30;42.10
43884;DHT22;29544;52.018;5.810;2023-04-06T02:02:54;17.30;42.80
43884;DHT22;29544;52.018;5.810;2023-04-06T02:05:19;17.30;42.20
43884;DHT22;29544;52.018;5.810;2023-04-06T02:07:45;17.30;42.20
43884;DHT22;29544;52.018;5.810;2023-04-06T02:10:12;17.20;42.20
43884;DHT22;29544;52.018;5.810;2023-04-06T02:12:38;17.20;42.20
43884;DHT22;29544;52.018;5.810;2023-04-06T02:15:04;17.20;42.20
43884;DHT22;29544;52.018;5.810;2023-04-06T02:17:29;17.20;42.20
43884;DHT22;29544;52.018;5.810;2023-04-06T02:19:55;17.10;42.20
43884;DHT22;29544;52.018;5.810;2023-04-06T02:22:21;17.10;42.10
43884;DHT22;29544;52.018;5.810;2023-04-06T02:24:46;17.10;42.20
43884;DHT22;29544;52.018;5.810;2023-04-06T02:27:13;17.10;42.20
43884;DHT22;29544;52.018;5.810;2023-04-06T02:29:38;17.00;42.20
43884;DHT22;29544;52.018;5.810;2023-04-06T02:32:04;17.00;42.20
43884;DHT22;29544;52.018;5.810;2023-04-06T02:34:30;17.00;42.20
43884;DHT22;29544;52.018;5.810;2023-04-06T02:36:55;17.00;42.20
43884;DHT22;29544;52.018;5.810;2023-04-06T02:39:21;17.00;42.20
43884;DHT22;29544;52.018;5.810;2023-04-06T02:41:46;17.00;42.20
43884;DHT22;29544;52.018;5.810;2023-04-06T02:44:12;16.90;42.20
43884;DHT22;29544;52.018;5.810;2023-04-06T02:46:37;16.90;42.20
43884;DHT22;29544;52.018;5.810;2023-04-06T02:49:03;16.90;42.20
43884;DHT22;29544;52.018;5.810;2023-04-06T02:51:28;16.90;42.30
43884;DHT22;29544;52.018;5.810;2023-04-06T02:53:54;16.90;42.20
43884;DHT22;29544;52.018;5.810;2023-04-06T02:56:19;16.80;42.20
43884;DHT22;29544;52.018;5.810;2023-04-06T02:58:46;16.80;42.20
43884;DHT22;29544;52.018;5.810;2023-04-06T03:01:12;16.80;42.30
43884;DHT22;29544;52.018;5.810;2023-04-06T03:03:38;16.80;42.20
43884;DHT22;29544;52.018;5.810;2023-04-06T03:06:03;16.80;42.20
43884;DHT22;29544;52.018;5.810;2023-04-06T03:08:29;16.80;42.20
43884;DHT22;29544;52.018;5.810;2023-04-06T03:10:55;16.70;42.20
43884;DHT22;29544;52.018;5.810;2023-04-06T03:13:20;16.70;42.20
43884;DHT22;29544;52.018;5.810;2023-04-06T03:15:46;16.70;42.20
43884;DHT22;29544;52.018;5.810;2023-04-06T03:18:12;16.70;42.20
43884;DHT22;29544;52.018;5.810;2023-04-06T03:20:37;16.70;42.30
43884;DHT22;29544;52.018;5.810;2023-04-06T03:23:03;16.70;42.20
43884;DHT22;29544;52.018;5.810;2023-04-06T03:25:29;16.60;42.20
43884;DHT22;29544;52.018;5.810;2023-04-06T03:27:55;16.60;42.30
43884;DHT22;29544;52.018;5.810;2023-04-06T03:30:21;16.60;42.20
43884;DHT22;29544;52.018;5.810;2023-04-06T03:32:46;16.60;42.20
43884;DHT22;29544;52.018;5.810;2023-04-06T03:35:12;16.60;42.30
43884;DHT22;29544;52.018;5.810;2023-04-06T03:37:38;16.60;42.30
43884;DHT22;29544;52.018;5.810;2023-04-06T03:40:04;16.50;42.30
43884;DHT22;29544;52.018;5.810;2023-04-06T03:42:30;16.50;42.30
43884;DHT22;29544;52.018;5.810;2023-04-06T03:44:56;16.50;42.30
43884;DHT22;29544;52.018;5.810;2023-04-06T03:47:22;16.50;42.30
43884;DHT22;29544;52.018;5.810;2023-04-06T03:49:47;16.50;42.30
43884;DHT22;29544;52.018;5.810;2023-04-06T03:52:13;16.50;42.30
43884;DHT22;29544;52.018;5.810;2023-04-06T03:54:38;16.50;42.40
43884;DHT22;29544;52.018;5.810;2023-04-06T03:57:04;16.40;42.30
43884;DHT22;29544;52.018;5.810;2023-04-06T03:59:30;16.40;42.30
43884;DHT22;29544;52.018;5.810;2023-04-06T04:01:55;16.40;42.40
43884;DHT22;29544;52.018;5.810;2023-04-06T04:04:21;16.40;42.40
43884;DHT22;29544;52.018;5.810;2023-04-06T04:06:46;16.40;42.40
43884;DHT22;29544;52.018;5.810;2023-04-06T04:09:12;16.40;42.50
43884;DHT22;29544;52.018;5.810;2023-04-06T04:11:38;16.40;42.50
43884;DHT22;29544;52.018;5.810;2023-04-06T04:14:03;16.30;42.40
43884;DHT22;29544;52.018;5.810;2023-04-06T04:16:29;16.30;42.40
43884;DHT22;29544;52.018;5.810;2023-04-06T04:18:54;16.30;42.40
43884;DHT22;29544;52.018;5.810;2023-04-06T04:21:20;16.30;42.50
43884;DHT22;29544;52.018;5.810;2023-04-06T04:23:46;16.30;42.50
43884;DHT22;29544;52.018;5.810;2023-04-06T04:26:11;16.20;42.50
43884;DHT22;29544;52.018;5.810;2023-04-06T04:28:37;16.30;42.50
43884;DHT22;29544;52.018;5.810;2023-04-06T04:31:02;16.20;42.50
43884;DHT22;29544;52.018;5.810;2023-04-06T04:33:28;16.20;42.50
43884;DHT22;29544;52.018;5.810;2023-04-06T04:35:53;16.20;42.50
43884;DHT22;29544;52.018;5.810;2023-04-06T04:38:19;16.20;42.50
43884;DHT22;29544;52.018;5.810;2023-04-06T04:40:44;16.20;42.50
43884;DHT22;29544;52.018;5.810;2023-04-06T04:43:10;16.20;42.50
43884;DHT22;29544;52.018;5.810;2023-04-06T04:45:36;16.20;42.60
43884;DHT22;29544;52.018;5.810;2023-04-06T04:48:01;16.20;42.60
43884;DHT22;29544;52.018;5.810;2023-04-06T04:50:27;16.10;42.50
43884;DHT22;29544;52.018;5.810;2023-04-06T04:52:52;16.10;42.50
43884;DHT22;29544;52.018;5.810;2023-04-06T04:55:18;16.10;42.50
43884;DHT22;29544;52.018;5.810;2023-04-06T04:57:43;16.10;42.60
43884;DHT22;29544;52.018;5.810;2023-04-06T05:00:09;16.10;42.70
43884;DHT22;29544;52.018;5.810;2023-04-06T05:02:35;16.10;42.60
43884;DHT22;29544;52.018;5.810;2023-04-06T05:05:00;16.00;42.60
43884;DHT22;29544;52.018;5.810;2023-04-06T05:07:26;16.00;42.60
43884;DHT22;29544;52.018;5.810;2023-04-06T05:09:52;16.00;42.60
43884;DHT22;29544;52.018;5.810;2023-04-06T05:12:18;16.00;42.70
43884;DHT22;29544;52.018;5.810;2023-04-06T05:14:44;16.00;42.70
43884;DHT22;29544;52.018;5.810;2023-04-06T05:17:09;16.00;42.70
43884;DHT22;29544;52.018;5.810;2023-04-06T05:19:35;16.00;42.70
43884;DHT22;29544;52.018;5.810;2023-04-06T05:22:01;16.00;42.70
43884;DHT22;29544;52.018;5.810;2023-04-06T05:24:26;15.90;42.70
43884;DHT22;29544;52.018;5.810;2023-04-06T05:26:52;15.90;42.70
43884;DHT22;29544;52.018;5.810;2023-04-06T05:29:18;15.90;42.70
43884;DHT22;29544;52.018;5.810;2023-04-06T05:31:45;15.90;42.70
43884;DHT22;29544;52.018;5.810;2023-04-06T05:34:10;15.90;42.70
43884;DHT22;29544;52.018;5.810;2023-04-06T05:36:37;15.90;42.80
43884;DHT22;29544;52.018;5.810;2023-04-06T05:39:03;15.90;42.80
43884;DHT22;29544;52.018;5.810;2023-04-06T05:41:29;15.90;42.80
43884;DHT22;29544;52.018;5.810;2023-04-06T05:43:54;15.80;42.70
43884;DHT22;29544;52.018;5.810;2023-04-06T05:46:20;15.80;42.80
43884;DHT22;29544;52.018;5.810;2023-04-06T05:48:46;15.80;42.80
43884;DHT22;29544;52.018;5.810;2023-04-06T05:51:11;15.80;42.80
43884;DHT22;29544;52.018;5.810;2023-04-06T05:53:37;15.80;42.80
43884;DHT22;29544;52.018;5.810;2023-04-06T05:56:03;15.80;42.90
43884;DHT22;29544;52.018;5.810;2023-04-06T05:58:29;15.80;42.90
43884;DHT22;29544;52.018;5.810;2023-04-06T06:00:59;15.80;42.90
43884;DHT22;29544;52.018;5.810;2023-04-06T06:03:25;15.70;42.80
43884;DHT22;29544;52.018;5.810;2023-04-06T06:05:50;15.80;42.90
43884;DHT22;29544;52.018;5.810;2023-04-06T06:08:16;15.70;42.90
43884;DHT22;29544;52.018;5.810;2023-04-06T06:10:41;15.70;42.90
43884;DHT22;29544;52.018;5.810;2023-04-06T06:13:08;15.70;42.90
43884;DHT22;29544;52.018;5.810;2023-04-06T06:15:33;15.70;42.90
43884;DHT22;29544;52.018;5.810;2023-04-06T06:17:59;15.70;43.00
43884;DHT22;29544;52.018;5.810;2023-04-06T06:20:25;15.70;43.00
43884;DHT22;29544;52.018;5.810;2023-04-06T06:22:52;15.70;43.00
43884;DHT22;29544;52.018;5.810;2023-04-06T06:25:17;15.70;43.00
43884;DHT22;29544;52.018;5.810;2023-04-06T06:27:43;15.70;43.00
43884;DHT22;29544;52.018;5.810;2023-04-06T06:30:09;15.60;43.00
43884;DHT22;29544;52.018;5.810;2023-04-06T06:32:34;15.60;43.00
43884;DHT22;29544;52.018;5.810;2023-04-06T06:35:00;15.60;43.00
43884;DHT22;29544;52.018;5.810;2023-04-06T06:37:25;15.60;43.00
43884;DHT22;29544;52.018;5.810;2023-04-06T06:39:51;15.60;43.00
43884;DHT22;29544;52.018;5.810;2023-04-06T06:42:16;15.60;43.00
43884;DHT22;29544;52.018;5.810;2023-04-06T06:44:42;15.60;43.00
43884;DHT22;29544;52.018;5.810;2023-04-06T06:47:07;15.60;43.00
43884;DHT22;29544;52.018;5.810;2023-04-06T06:49:33;15.60;43.10
43884;DHT22;29544;52.018;5.810;2023-04-06T06:51:58;15.60;43.10
43884;DHT22;29544;52.018;5.810;2023-04-06T06:54:24;15.60;43.10
43884;DHT22;29544;52.018;5.810;2023-04-06T06:56:50;15.60;43.10
43884;DHT22;29544;52.018;5.810;2023-04-06T06:59:15;15.60;42.90
43884;DHT22;29544;52.018;5.810;2023-04-06T07:01:41;15.60;42.90
43884;DHT22;29544;52.018;5.810;2023-04-06T07:04:07;15.60;42.90
43884;DHT22;29544;52.018;5.810;2023-04-06T07:06:35;15.60;43.00
43884;DHT22;29544;52.018;5.810;2023-04-06T07:09:01;15.60;43.00
43884;DHT22;29544;52.018;5.810;2023-04-06T07:11:28;15.60;43.00
43884;DHT22;29544;52.018;5.810;2023-04-06T07:13:54;15.60;43.20
43884;DHT22;29544;52.018;5.810;2023-04-06T07:16:19;15.70;43.30
43884;DHT22;29544;52.018;5.810;2023-04-06T07:18:45;15.70;43.30
43884;DHT22;29544;52.018;5.810;2023-04-06T07:21:11;15.70;43.40
43884;DHT22;29544;52.018;5.810;2023-04-06T07:23:36;15.70;43.40
43884;DHT22;29544;52.018;5.810;2023-04-06T07:26:02;15.80;43.40
43884;DHT22;29544;52.018;5.810;2023-04-06T07:28:27;15.80;43.40
43884;DHT22;29544;52.018;5.810;2023-04-06T07:30:53;15.80;43.40
43884;DHT22;29544;52.018;5.810;2023-04-06T07:33:19;15.80;43.30
43884;DHT22;29544;52.018;5.810;2023-04-06T07:35:45;15.80;43.30
43884;DHT22;29544;52.018;5.810;2023-04-06T07:38:11;15.90;43.30
43884;DHT22;29544;52.018;5.810;2023-04-06T07:40:36;15.90;43.20
43884;DHT22;29544;52.018;5.810;2023-04-06T07:43:02;15.90;43.20
43884;DHT22;29544;52.018;5.810;2023-04-06T07:45:28;15.90;43.20
43884;DHT22;29544;52.018;5.810;2023-04-06T07:47:53;15.90;43.10
43884;DHT22;29544;52.018;5.810;2023-04-06T07:50:19;16.00;43.10
43884;DHT22;29544;52.018;5.810;2023-04-06T07:52:45;16.00;43.10
43884;DHT22;29544;52.018;5.810;2023-04-06T07:55:10;16.00;43.10
43884;DHT22;29544;52.018;5.810;2023-04-06T07:57:36;16.00;43.00
43884;DHT22;29544;52.018;5.810;2023-04-06T08:00:02;16.00;42.90
43884;DHT22;29544;52.018;5.810;2023-04-06T08:02:29;16.00;42.80
43884;DHT22;29544;52.018;5.810;2023-04-06T08:04:54;16.00;42.80
43884;DHT22;29544;52.018;5.810;2023-04-06T08:07:20;15.90;42.80
43884;DHT22;29544;52.018;5.810;2023-04-06T08:09:45;15.90;42.80
43884;DHT22;29544;52.018;5.810;2023-04-06T08:12:11;15.90;42.70
43884;DHT22;29544;52.018;5.810;2023-04-06T08:14:36;16.00;42.70
43884;DHT22;29544;52.018;5.810;2023-04-06T08:17:02;15.90;42.60
43884;DHT22;29544;52.018;5.810;2023-04-06T08:19:27;15.90;42.60
43884;DHT22;29544;52.018;5.810;2023-04-06T08:21:53;15.90;42.60
43884;DHT22;29544;52.018;5.810;2023-04-06T08:24:18;15.90;42.60
43884;DHT22;29544;52.018;5.810;2023-04-06T08:26:44;15.90;42.60
43884;DHT22;29544;52.018;5.810;2023-04-06T08:29:09;15.90;42.70
43884;DHT22;29544;52.018;5.810;2023-04-06T08:31:36;15.90;42.70
43884;DHT22;29544;52.018;5.810;2023-04-06T08:34:03;15.80;42.70
43884;DHT22;29544;52.018;5.810;2023-04-06T08:36:30;15.80;42.70
43884;DHT22;29544;52.018;5.810;2023-04-06T08:38:56;15.80;42.70
43884;DHT22;29544;52.018;5.810;2023-04-06T08:41:21;15.80;42.70
43884;DHT22;29544;52.018;5.810;2023-04-06T08:43:48;15.70;42.70
43884;DHT22;29544;52.018;5.810;2023-04-06T08:46:15;15.70;42.60
43884;DHT22;29544;52.018;5.810;2023-04-06T08:48:42;15.70;43.20
43884;DHT22;29544;52.018;5.810;2023-04-06T08:51:09;15.70;43.00
43884;DHT22;29544;52.018;5.810;2023-04-06T08:53:34;15.70;43.60
43884;DHT22;29544;52.018;5.810;2023-04-06T08:56:00;15.70;43.00
43884;DHT22;29544;52.018;5.810;2023-04-06T08:58:28;15.70;43.00
43884;DHT22;29544;52.018;5.810;2023-04-06T09:00:54;15.70;43.00
43884;DHT22;29544;52.018;5.810;2023-04-06T09:03:20;15.70;43.00
43884;DHT22;29544;52.018;5.810;2023-04-06T09:05:47;15.70;42.90
43884;DHT22;29544;52.018;5.810;2023-04-06T09:08:13;15.60;42.90
43884;DHT22;29544;52.018;5.810;2023-04-06T09:10:40;15.60;43.00
43884;DHT22;29544;52.018;5.810;2023-04-06T09:13:07;15.70;43.00
43884;DHT22;29544;52.018;5.810;2023-04-06T09:15:34;15.60;43.00
43884;DHT22;29544;52.018;5.810;2023-04-06T09:18:00;15.70;43.00
43884;DHT22;29544;52.018;5.810;2023-04-06T09:20:26;15.60;43.00
43884;DHT22;29544;52.018;5.810;2023-04-06T09:22:54;15.60;43.60
43884;DHT22;29544;52.018;5.810;2023-04-06T09:25:21;15.60;43.00
43884;DHT22;29544;52.018;5.810;2023-04-06T09:27:49;15.60;43.00
43884;DHT22;29544;52.018;5.810;2023-04-06T09:30:23;15.60;43.00
43884;DHT22;29544;52.018;5.810;2023-04-06T09:32:55;15.60;43.00
43884;DHT22;29544;52.018;5.810;2023-04-06T09:35:22;15.60;43.00
43884;DHT22;29544;52.018;5.810;2023-04-06T09:37:49;15.60;43.00
43884;DHT22;29544;52.018;5.810;2023-04-06T09:40:15;15.60;43.00
43884;DHT22;29544;52.018;5.810;2023-04-06T09:42:45;15.60;43.00
43884;DHT22;29544;52.018;5.810;2023-04-06T09:45:12;15.60;43.00
43884;DHT22;29544;52.018;5.810;2023-04-06T09:47:40;15.60;43.00
43884;DHT22;29544;52.018;5.810;2023-04-06T09:50:09;15.60;43.00
43884;DHT22;29544;52.018;5.810;2023-04-06T09:52:40;15.60;43.00
43884;DHT22;29544;52.018;5.810;2023-04-06T09:55:07;15.50;43.00
43884;DHT22;29544;52.018;5.810;2023-04-06T09:57:52;15.60;43.10
43884;DHT22;29544;52.018;5.810;2023-04-06T10:00:22;15.60;43.10
43884;DHT22;29544;52.018;5.810;2023-04-06T10:02:56;15.50;43.00
43884;DHT22;29544;52.018;5.810;2023-04-06T10:08:12;15.50;43.10
43884;DHT22;29544;52.018;5.810;2023-04-06T10:10:38;15.50;43.10
43884;DHT22;29544;52.018;5.810;2023-04-06T10:13:04;15.50;43.10
43884;DHT22;29544;52.018;5.810;2023-04-06T10:15:30;15.50;43.10
43884;DHT22;29544;52.018;5.810;2023-04-06T10:18:00;15.50;43.20
43884;DHT22;29544;52.018;5.810;2023-04-06T10:23:18;15.50;43.20
43884;DHT22;29544;52.018;5.810;2023-04-06T10:25:56;15.50;43.20
43884;DHT22;29544;52.018;5.810;2023-04-06T10:28:22;15.50;43.20
43884;DHT22;29544;52.018;5.810;2023-04-06T10:30:48;15.50;43.30
43884;DHT22;29544;52.018;5.810;2023-04-06T10:33:15;15.50;43.30
43884;DHT22;29544;52.018;5.810;2023-04-06T10:35:41;15.50;43.30
43884;DHT22;29544;52.018;5.810;2023-04-06T10:38:06;15.50;43.30
43884;DHT22;29544;52.018;5.810;2023-04-06T10:40:36;15.50;43.30
43884;DHT22;29544;52.018;5.810;2023-04-06T10:43:12;15.50;43.30
43884;DHT22;29544;52.018;5.810;2023-04-06T10:45:39;15.50;43.30
43884;DHT22;29544;52.018;5.810;2023-04-06T10:48:14;15.50;43.40
43884;DHT22;29544;52.018;5.810;2023-04-06T10:50:46;15.50;43.40
43884;DHT22;29544;52.018;5.810;2023-04-06T10:53:24;15.50;43.40
43884;DHT22;29544;52.018;5.810;2023-04-06T10:55:51;15.50;43.40
43884;DHT22;29544;52.018;5.810;2023-04-06T10:58:17;15.50;43.50
43884;DHT22;29544;52.018;5.810;2023-04-06T11:00:47;15.50;44.30
43884;DHT22;29544;52.018;5.810;2023-04-06T11:03:13;15.60;44.80
43884;DHT22;29544;52.018;5.810;2023-04-06T11:05:42;15.60;45.00
43884;DHT22;29544;52.018;5.810;2023-04-06T11:08:08;15.70;45.10
43884;DHT22;29544;52.018;5.810;2023-04-06T11:10:33;15.70;45.10
43884;DHT22;29544;52.018;5.810;2023-04-06T11:12:59;15.80;45.20
43884;DHT22;29544;52.018;5.810;2023-04-06T11:15:24;15.80;45.10
43884;DHT22;29544;52.018;5.810;2023-04-06T11:17:50;15.90;45.20
43884;DHT22;29544;52.018;5.810;2023-04-06T11:20:16;15.90;45.80
43884;DHT22;29544;52.018;5.810;2023-04-06T11:22:50;15.90;45.10
43884;DHT22;29544;52.018;5.810;2023-04-06T11:25:16;16.00;45.10
43884;DHT22;29544;52.018;5.810;2023-04-06T11:27:42;16.00;45.10
43884;DHT22;29544;52.018;5.810;2023-04-06T11:30:09;16.00;45.10
43884;DHT22;29544;52.018;5.810;2023-04-06T11:32:42;16.10;45.10
43884;DHT22;29544;52.018;5.810;2023-04-06T11:37:51;16.10;45.00
43884;DHT22;29544;52.018;5.810;2023-04-06T11:40:21;16.10;45.10
43884;DHT22;29544;52.018;5.810;2023-04-06T11:42:54;16.10;45.20
43884;DHT22;29544;52.018;5.810;2023-04-06T11:45:20;16.20;45.30
43884;DHT22;29544;52.018;5.810;2023-04-06T11:47:59;16.20;45.40
43884;DHT22;29544;52.018;5.810;2023-04-06T11:50:31;16.20;45.50
43884;DHT22;29544;52.018;5.810;2023-04-06T11:53:01;16.20;45.50
43884;DHT22;29544;52.018;5.810;2023-04-06T11:55:26;16.20;45.50
43884;DHT22;29544;52.018;5.810;2023-04-06T11:57:52;16.30;45.60
43884;DHT22;29544;52.018;5.810;2023-04-06T12:00:18;16.30;45.70
43884;DHT22;29544;52.018;5.810;2023-04-06T12:02:50;16.30;45.60
43884;DHT22;29544;52.018;5.810;2023-04-06T12:05:15;16.30;45.50
43884;DHT22;29544;52.018;5.810;2023-04-06T12:07:41;16.30;45.60
43884;DHT22;29544;52.018;5.810;2023-04-06T12:10:07;16.30;45.60
43884;DHT22;29544;52.018;5.810;2023-04-06T12:12:33;16.30;45.70
43884;DHT22;29544;52.018;5.810;2023-04-06T12:14:58;16.30;45.80
43884;DHT22;29544;52.018;5.810;2023-04-06T12:17:25;16.30;46.00
43884;DHT22;29544;52.018;5.810;2023-04-06T12:19:50;16.30;46.40
43884;DHT22;29544;52.018;5.810;2023-04-06T12:22:17;16.40;47.40
43884;DHT22;29544;52.018;5.810;2023-04-06T12:24:42;16.40;48.30
43884;DHT22;29544;52.018;5.810;2023-04-06T12:27:08;16.40;48.80
43884;DHT22;29544;52.018;5.810;2023-04-06T12:29:34;16.40;48.90
43884;DHT22;29544;52.018;5.810;2023-04-06T12:31:59;16.40;49.20
43884;DHT22;29544;52.018;5.810;2023-04-06T12:34:26;16.50;49.50
43884;DHT22;29544;52.018;5.810;2023-04-06T12:36:52;16.50;49.60
43884;DHT22;29544;52.018;5.810;2023-04-06T12:39:18;16.50;49.60
43884;DHT22;29544;52.018;5.810;2023-04-06T12:41:44;16.50;49.50
43884;DHT22;29544;52.018;5.810;2023-04-06T12:44:09;16.50;49.60
43884;DHT22;29544;52.018;5.810;2023-04-06T12:46:36;16.50;50.00
43884;DHT22;29544;52.018;5.810;2023-04-06T12:49:01;16.50;50.30
43884;DHT22;29544;52.018;5.810;2023-04-06T12:51:28;16.50;50.40
43884;DHT22;29544;52.018;5.810;2023-04-06T12:53:54;16.50;50.10
43884;DHT22;29544;52.018;5.810;2023-04-06T12:56:19;16.40;50.30
43884;DHT22;29544;52.018;5.810;2023-04-06T12:58:47;16.40;50.00
43884;DHT22;29544;52.018;5.810;2023-04-06T13:01:13;16.40;49.20
43884;DHT22;29544;52.018;5.810;2023-04-06T13:03:40;16.30;48.50
43884;DHT22;29544;52.018;5.810;2023-04-06T13:06:05;16.30;48.20
43884;DHT22;29544;52.018;5.810;2023-04-06T13:08:31;16.30;47.90
43884;DHT22;29544;52.018;5.810;2023-04-06T13:10:56;16.30;47.80
43884;DHT22;29544;52.018;5.810;2023-04-06T13:13:24;16.20;47.60
43884;DHT22;29544;52.018;5.810;2023-04-06T13:15:50;16.20;47.50
43884;DHT22;29544;52.018;5.810;2023-04-06T13:18:16;16.20;47.40
43884;DHT22;29544;52.018;5.810;2023-04-06T13:20:41;16.10;47.30
43884;DHT22;29544;52.018;5.810;2023-04-06T13:23:07;16.10;47.30
43884;DHT22;29544;52.018;5.810;2023-04-06T13:25:33;16.10;47.30
43884;DHT22;29544;52.018;5.810;2023-04-06T13:27:58;16.10;47.30
43884;DHT22;29544;52.018;5.810;2023-04-06T13:30:24;16.10;47.30
43884;DHT22;29544;52.018;5.810;2023-04-06T13:32:50;16.10;47.30
43884;DHT22;29544;52.018;5.810;2023-04-06T13:35:16;16.00;47.20
43884;DHT22;29544;52.018;5.810;2023-04-06T13:37:42;16.00;47.20
43884;DHT22;29544;52.018;5.810;2023-04-06T13:40:08;16.00;47.20
43884;DHT22;29544;52.018;5.810;2023-04-06T13:42:34;16.00;47.20
43884;DHT22;29544;52.018;5.810;2023-04-06T13:45:00;16.00;47.20
43884;DHT22;29544;52.018;5.810;2023-04-06T13:47:26;16.00;47.50
43884;DHT22;29544;52.018;5.810;2023-04-06T13:49:53;16.00;47.50
43884;DHT22;29544;52.018;5.810;2023-04-06T13:52:19;16.00;47.60
43884;DHT22;29544;52.018;5.810;2023-04-06T13:54:46;16.10;47.70
43884;DHT22;29544;52.018;5.810;2023-04-06T13:57:11;16.10;47.60
43884;DHT22;29544;52.018;5.810;2023-04-06T13:59:38;16.20;47.60
43884;DHT22;29544;52.018;5.810;2023-04-06T14:02:06;16.10;47.40
43884;DHT22;29544;52.018;5.810;2023-04-06T14:04:32;16.20;47.60
43884;DHT22;29544;52.018;5.810;2023-04-06T14:06:58;16.30;47.60
43884;DHT22;29544;52.018;5.810;2023-04-06T14:09:24;16.40;47.60
43884;DHT22;29544;52.018;5.810;2023-04-06T14:11:50;16.40;47.60
43884;DHT22;29544;52.018;5.810;2023-04-06T14:14:16;16.50;47.60
43884;DHT22;29544;52.018;5.810;2023-04-06T14:16:42;16.60;47.60
43884;DHT22;29544;52.018;5.810;2023-04-06T14:19:10;16.70;47.60
43884;DHT22;29544;52.018;5.810;2023-04-06T14:21:37;16.80;47.40
43884;DHT22;29544;52.018;5.810;2023-04-06T14:24:05;16.90;47.30
43884;DHT22;29544;52.018;5.810;2023-04-06T14:26:31;17.00;47.20
43884;DHT22;29544;52.018;5.810;2023-04-06T14:28:58;17.10;47.10
43884;DHT22;29544;52.018;5.810;2023-04-06T14:31:23;17.10;47.00
43884;DHT22;29544;52.018;5.810;2023-04-06T14:33:49;17.10;46.80
43884;DHT22;29544;52.018;5.810;2023-04-06T14:36:15;17.20;46.80
43884;DHT22;29544;52.018;5.810;2023-04-06T14:38:40;17.30;46.70
43884;DHT22;29544;52.018;5.810;2023-04-06T14:41:07;17.20;46.60
43884;DHT22;29544;52.018;5.810;2023-04-06T14:43:33;17.20;46.50
43884;DHT22;29544;52.018;5.810;2023-04-06T14:46:02;17.30;46.50
43884;DHT22;29544;52.018;5.810;2023-04-06T14:48:28;17.30;46.40
43884;DHT22;29544;52.018;5.810;2023-04-06T14:50:57;17.40;46.40
43884;DHT22;29544;52.018;5.810;2023-04-06T14:53:23;17.50;46.40
43884;DHT22;29544;52.018;5.810;2023-04-06T14:55:49;17.50;46.20
43884;DHT22;29544;52.018;5.810;2023-04-06T14:58:17;17.50;46.10
43884;DHT22;29544;52.018;5.810;2023-04-06T15:00:42;17.60;46.10
43884;DHT22;29544;52.018;5.810;2023-04-06T15:03:07;17.70;46.00
43884;DHT22;29544;52.018;5.810;2023-04-06T15:05:34;17.70;45.90
43884;DHT22;29544;52.018;5.810;2023-04-06T15:08:00;17.70;45.80
43884;DHT22;29544;52.018;5.810;2023-04-06T15:10:26;17.70;45.80
43884;DHT22;29544;52.018;5.810;2023-04-06T15:12:51;17.80;45.80
43884;DHT22;29544;52.018;5.810;2023-04-06T15:15:17;17.80;45.90
43884;DHT22;29544;52.018;5.810;2023-04-06T15:17:42;17.80;46.00
43884;DHT22;29544;52.018;5.810;2023-04-06T15:20:08;17.80;46.10
43884;DHT22;29544;52.018;5.810;2023-04-06T15:22:34;17.80;46.10
43884;DHT22;29544;52.018;5.810;2023-04-06T15:24:59;17.90;46.30
43884;DHT22;29544;52.018;5.810;2023-04-06T15:27:25;17.90;47.00
43884;DHT22;29544;52.018;5.810;2023-04-06T15:29:50;18.00;46.40
43884;DHT22;29544;52.018;5.810;2023-04-06T15:32:16;18.10;46.50